createdAt,value
2023-04-29T00:00:18.719Z,71.09
2023-04-29T00:03:40.494Z,70.96
2023-04-29T00:07:02.315Z,68.82
2023-04-29T00:10:23.989Z,69.20
2023-04-29T00:13:45.561Z,68.43
2023-04-29T00:17:07.313Z,68.72
2023-04-29T00:20:28.955Z,68.58
2023-04-29T00:23:51.121Z,68.18
2023-04-29T00:27:14.986Z,68.63
2023-04-29T00:30:37.357Z,67.13
2023-04-29T00:33:58.954Z,67.07
2023-04-29T00:37:22.796Z,63.79
2023-04-29T00:40:45.360Z,63.58
2023-04-29T00:44:10.031Z,63.40
2023-04-29T00:47:33.893Z,63.06
2023-04-29T00:50:57.729Z,61.05
2023-04-29T00:54:19.748Z,62.01
2023-04-29T00:57:42.684Z,60.95
2023-04-29T01:01:04.394Z,60.53
2023-04-29T01:04:26.300Z,61.17
2023-04-29T01:08:10.949Z,60.32
2023-04-29T01:11:50.394Z,61.53
2023-04-29T01:15:32.612Z,60.47
2023-04-29T01:19:28.750Z,61.21
2023-04-29T01:22:52.675Z,60.53
2023-04-29T01:26:14.813Z,60.05
2023-04-29T01:29:54.875Z,60.38
2023-04-29T01:33:27.028Z,59.89
2023-04-29T01:36:48.667Z,61.19
2023-04-29T01:40:20.005Z,61.01
2023-04-29T01:43:48.519Z,60.29
2023-04-29T01:47:13.624Z,60.18
2023-04-29T01:50:35.414Z,60.02
2023-04-29T01:53:57.434Z,59.83
2023-04-29T01:57:19.474Z,58.96
2023-04-29T02:00:41.668Z,58.70
2023-04-29T02:04:04.069Z,58.94
2023-04-29T02:07:28.173Z,59.24
2023-04-29T02:10:57.717Z,59.40
2023-04-29T02:14:19.303Z,58.03
2023-04-29T02:17:41.207Z,58.67
2023-04-29T02:21:03.313Z,58.41
2023-04-29T02:24:27.047Z,58.73
2023-04-29T02:27:48.657Z,58.73
2023-04-29T02:31:10.220Z,58.43
2023-04-29T02:34:32.453Z,58.79
2023-04-29T02:37:57.485Z,58.85
2023-04-29T02:41:22.226Z,58.87
2023-04-29T02:44:43.953Z,59.17
2023-04-29T02:48:06.523Z,59.15
2023-04-29T02:51:30.886Z,58.99
2023-04-29T02:54:57.487Z,59.14
2023-04-29T02:58:19.103Z,59.22
2023-04-29T03:01:41.475Z,58.95
2023-04-29T03:05:04.621Z,59.16
2023-04-29T03:08:26.318Z,59.30
2023-04-29T03:11:47.871Z,59.12
2023-04-29T03:15:15.614Z,58.96
2023-04-29T03:18:39.395Z,59.06
2023-04-29T03:22:01.001Z,58.53
2023-04-29T03:25:23.023Z,58.78
2023-04-29T03:28:47.878Z,58.75
2023-04-29T03:32:12.260Z,58.96
2023-04-29T03:35:34.321Z,59.07
2023-04-29T03:38:55.880Z,58.96
2023-04-29T03:42:17.479Z,59.55
2023-04-29T03:45:39.216Z,59.25
2023-04-29T03:49:00.909Z,59.86
2023-04-29T03:52:22.485Z,59.96
2023-04-29T03:55:44.077Z,59.82
2023-04-29T03:59:05.743Z,58.93
2023-04-29T04:02:27.971Z,58.84
2023-04-29T04:05:49.685Z,59.33
2023-04-29T04:09:11.300Z,59.70
2023-04-29T04:12:32.878Z,59.73
2023-04-29T04:15:54.544Z,60.18
2023-04-29T04:19:19.399Z,60.17
2023-04-29T04:22:43.209Z,59.32
2023-04-29T04:26:04.989Z,60.33
2023-04-29T04:29:26.599Z,59.85
2023-04-29T04:32:48.159Z,60.29
2023-04-29T04:36:10.203Z,60.48
2023-04-29T04:39:31.826Z,61.81
2023-04-29T04:42:55.176Z,61.23
2023-04-29T04:46:19.240Z,62.00
2023-04-29T04:49:44.112Z,62.00
2023-04-29T04:53:10.594Z,62.60
2023-04-29T04:56:32.212Z,61.96
2023-04-29T04:59:53.957Z,62.83
2023-04-29T05:03:18.184Z,63.56
2023-04-29T05:06:39.847Z,62.76
2023-04-29T05:10:02.429Z,62.74
2023-04-29T05:13:25.520Z,63.38
2023-04-29T05:16:47.187Z,62.85
2023-04-29T05:20:09.422Z,62.98
2023-04-29T05:23:31.242Z,61.54
2023-04-29T05:26:54.160Z,63.00
2023-04-29T05:30:16.266Z,63.99
2023-04-29T05:33:37.929Z,63.66
2023-04-29T05:36:59.554Z,64.44
2023-04-29T05:40:23.261Z,64.10
2023-04-29T05:43:47.969Z,65.17
2023-04-29T05:47:09.560Z,66.33
2023-04-29T05:50:31.150Z,65.58
2023-04-29T05:53:59.531Z,63.79
2023-04-29T05:57:21.217Z,65.41
2023-04-29T06:00:45.402Z,64.94
2023-04-29T06:04:09.349Z,64.75
2023-04-29T06:07:33.347Z,62.60
2023-04-29T06:10:54.977Z,63.00
2023-04-29T06:14:16.622Z,61.96
2023-04-29T06:17:40.616Z,62.31
2023-04-29T06:21:02.284Z,61.65
2023-04-29T06:24:23.907Z,62.73
2023-04-29T06:27:45.478Z,63.75
2023-04-29T06:31:07.498Z,62.71
2023-04-29T06:34:33.593Z,62.92
2023-04-29T06:37:56.815Z,62.38
2023-04-29T06:41:20.464Z,63.26
2023-04-29T06:44:42.113Z,63.31
2023-04-29T06:48:04.079Z,63.55
2023-04-29T06:51:28.103Z,62.71
2023-04-29T06:54:52.042Z,62.50
2023-04-29T06:58:17.597Z,62.55
2023-04-29T07:01:42.520Z,63.21
2023-04-29T07:05:08.821Z,63.22
2023-04-29T07:08:33.293Z,62.26
2023-04-29T07:11:55.169Z,61.42
2023-04-29T07:15:16.789Z,60.56
2023-04-29T07:18:41.425Z,60.08
2023-04-29T07:22:05.324Z,60.54
2023-04-29T07:25:29.286Z,60.11
2023-04-29T07:28:50.873Z,59.11
2023-04-29T07:32:15.951Z,58.02
2023-04-29T07:35:44.542Z,58.79
